Time;durP1;ratioP1;P1;durP2;ratioP2;P2;SDS_P1;SDS_P2;PMS_P1;PMS_P2;Temp;Humidity;BMP_temperature;BMP_pressure;BME280_temperature;BME280_humidity;BME280_pressure;Samples;Min_cycle;Max_cycle;Signal;HPM_P1;HPM_P2
2024/02/22 00:02:17;;;;;;;3.70;3.50;;;8.90;99.90;;;;;;5133115;27;20175;-73
2024/02/22 00:04:43;;;;;;;3.90;3.70;;;8.90;99.90;;;;;;5126942;27;20176;-73
2024/02/22 00:07:11;;;;;;;3.60;3.40;;;8.90;99.90;;;;;;5112657;28;20542;-73
2024/02/22 00:09:36;;;;;;;4.57;3.60;;;8.90;99.90;;;;;;5094725;28;20184;-73
2024/02/22 00:12:02;;;;;;;3.73;3.57;;;8.90;99.90;;;;;;5112382;28;20192;-73
2024/02/22 00:14:28;;;;;;;3.60;3.50;;;9.00;99.90;;;;;;5112392;28;20186;-73
2024/02/22 00:16:54;;;;;;;3.70;3.40;;;9.00;99.90;;;;;;5112179;28;20201;-73
2024/02/22 00:19:20;;;;;;;3.60;3.40;;;9.00;99.90;;;;;;5130273;27;20359;-73
2024/02/22 00:21:45;;;;;;;3.43;3.27;;;9.00;99.90;;;;;;5132936;27;20197;-73
2024/02/22 00:24:11;;;;;;;3.60;3.40;;;9.00;99.90;;;;;;5132503;27;20168;-73
2024/02/22 00:26:36;;;;;;;3.80;3.60;;;9.10;99.90;;;;;;5131215;27;20184;-73
2024/02/22 00:29:02;;;;;;;3.70;3.40;;;9.10;99.90;;;;;;5132610;27;20227;-73
2024/02/22 00:31:27;;;;;;;4.03;3.83;;;9.20;99.90;;;;;;5132765;27;20176;-74
2024/02/22 00:33:53;;;;;;;3.30;3.20;;;9.20;99.90;;;;;;5132507;27;20179;-73
2024/02/22 00:36:19;;;;;;;3.50;3.30;;;9.20;99.90;;;;;;5132519;27;20280;-73
2024/02/22 00:38:45;;;;;;;4.07;3.77;;;9.30;99.90;;;;;;5132203;27;20184;-73
2024/02/22 00:41:10;;;;;;;3.50;3.40;;;9.30;99.90;;;;;;5123932;27;20177;-74
2024/02/22 00:43:36;;;;;;;3.77;3.47;;;9.30;99.90;;;;;;5111946;28;20561;-73
2024/02/22 00:46:01;;;;;;;3.50;3.40;;;9.30;99.90;;;;;;5118760;27;20183;-73
2024/02/22 00:48:27;;;;;;;3.80;3.60;;;9.30;99.90;;;;;;5132236;27;20180;-73
2024/02/22 00:50:53;;;;;;;3.50;3.20;;;9.30;99.90;;;;;;5132769;27;20178;-73
2024/02/22 00:53:18;;;;;;;3.40;3.30;;;9.40;99.90;;;;;;5133819;27;20642;-73
2024/02/22 00:55:44;;;;;;;3.60;3.43;;;9.40;99.90;;;;;;5132629;27;20195;-73
2024/02/22 00:58:10;;;;;;;3.60;3.40;;;9.40;99.90;;;;;;5132113;27;20275;-72
2024/02/22 01:00:36;;;;;;;3.57;3.37;;;9.40;99.90;;;;;;5130921;27;20214;-72
2024/02/22 01:03:03;;;;;;;3.40;3.30;;;9.40;99.90;;;;;;5132050;27;20325;-73
2024/02/22 01:05:29;;;;;;;3.20;3.10;;;9.50;99.90;;;;;;5132343;27;20271;-72
2024/02/22 01:07:54;;;;;;;3.30;3.20;;;9.50;99.90;;;;;;5132342;28;20293;-73
2024/02/22 01:10:21;;;;;;;3.60;3.40;;;9.50;99.90;;;;;;5128825;28;20177;-73
2024/02/22 01:12:46;;;;;;;3.50;3.30;;;9.50;99.90;;;;;;5111570;28;20275;-73
2024/02/22 01:15:13;;;;;;;4.27;3.50;;;9.50;99.90;;;;;;5111577;28;20201;-73
2024/02/22 01:17:38;;;;;;;3.27;3.17;;;9.50;99.90;;;;;;5112301;28;20254;-73
2024/02/22 01:20:04;;;;;;;3.40;3.30;;;9.50;99.90;;;;;;5132052;28;20514;-73
2024/02/22 01:22:30;;;;;;;3.27;3.17;;;9.60;99.90;;;;;;5113377;28;20172;-73
2024/02/22 01:24:56;;;;;;;3.60;3.40;;;9.60;99.90;;;;;;5132121;28;20690;-73
2024/02/22 01:27:21;;;;;;;3.40;3.30;;;9.60;99.90;;;;;;5132067;28;20692;-73
2024/02/22 01:29:47;;;;;;;3.30;3.20;;;9.70;99.90;;;;;;5132173;28;20510;-73
2024/02/22 01:32:12;;;;;;;3.27;3.17;;;9.70;99.90;;;;;;5131848;28;20636;-73
2024/02/22 01:34:38;;;;;;;3.10;3.00;;;9.70;99.90;;;;;;5111802;28;20173;-73
2024/02/22 01:37:03;;;;;;;3.40;3.20;;;9.70;99.90;;;;;;5111388;28;20234;-73
2024/02/22 01:39:29;;;;;;;3.17;3.07;;;9.70;99.90;;;;;;5111249;28;20196;-73
2024/02/22 01:41:55;;;;;;;3.20;3.10;;;9.70;99.90;;;;;;5114197;28;20165;-73
2024/02/22 01:44:30;;;;;;;3.37;3.27;;;9.80;99.90;;;;;;5131641;28;20633;-73
2024/02/22 01:46:57;;;;;;;3.20;3.00;;;9.80;99.90;;;;;;5119834;28;20183;-72
2024/02/22 01:49:25;;;;;;;3.10;3.00;;;9.80;99.90;;;;;;5111410;28;20204;-71
2024/02/22 01:51:56;;;;;;;3.10;3.00;;;9.80;99.90;;;;;;5111926;28;20638;-71
2024/02/22 01:54:22;;;;;;;3.20;3.10;;;9.80;99.90;;;;;;5111225;28;20409;-72
2024/02/22 01:56:48;;;;;;;3.30;3.20;;;9.80;99.90;;;;;;5111581;28;20196;-72
2024/02/22 01:59:14;;;;;;;3.20;3.00;;;9.80;99.90;;;;;;5111387;28;20196;-72
2024/02/22 02:01:41;;;;;;;3.63;3.33;;;9.80;99.90;;;;;;5122428;28;20518;-73
2024/02/22 02:04:12;;;;;;;3.10;3.00;;;9.80;99.90;;;;;;5131554;28;20541;-72
2024/02/22 02:06:38;;;;;;;3.30;3.10;;;9.80;99.90;;;;;;5112531;28;20321;-73
2024/02/22 02:09:04;;;;;;;3.20;3.00;;;9.80;99.90;;;;;;5132020;28;20296;-72
2024/02/22 02:11:29;;;;;;;2.90;2.80;;;9.80;99.90;;;;;;5134293;27;20229;-73
2024/02/22 02:13:55;;;;;;;3.10;3.00;;;9.80;99.90;;;;;;5132311;27;20173;-72
2024/02/22 02:16:21;;;;;;;3.30;3.10;;;9.80;99.90;;;;;;5116212;28;20200;-72
2024/02/22 02:18:46;;;;;;;3.20;3.10;;;9.80;99.90;;;;;;5114874;28;20581;-73
2024/02/22 02:21:39;;;;;;;3.40;3.30;;;9.80;99.90;;;;;;5115942;27;20169;-72
2024/02/22 02:24:41;;;;;;;3.10;3.00;;;9.80;99.90;;;;;;5114790;28;20630;-72
2024/02/22 02:27:07;;;;;;;3.53;3.30;;;9.80;99.90;;;;;;5097606;28;20187;-73
2024/02/22 02:29:32;;;;;;;3.30;3.10;;;9.80;99.90;;;;;;5114508;28;20251;-73
2024/02/22 02:31:58;;;;;;;3.33;3.13;;;9.80;99.90;;;;;;5114401;28;20234;-72
2024/02/22 02:34:23;;;;;;;3.83;3.20;;;9.80;99.90;;;;;;5114322;28;20206;-73
2024/02/22 02:36:49;;;;;;;3.07;2.80;;;9.80;99.90;;;;;;5114766;27;20212;-73
2024/02/22 02:39:14;;;;;;;3.37;3.27;;;9.80;99.90;;;;;;5113949;28;20185;-73
2024/02/22 02:41:40;;;;;;;3.60;3.40;;;9.80;99.90;;;;;;5115399;27;20234;-73
2024/02/22 02:44:06;;;;;;;3.60;3.40;;;9.80;99.90;;;;;;5134631;27;20175;-72
2024/02/22 02:46:31;;;;;;;3.20;3.00;;;9.80;99.90;;;;;;5134663;27;20694;-72
2024/02/22 02:48:57;;;;;;;3.10;3.00;;;9.80;99.90;;;;;;5134677;27;20267;-72
2024/02/22 02:51:22;;;;;;;3.00;2.90;;;9.80;99.90;;;;;;5134580;27;20215;-72
2024/02/22 02:53:48;;;;;;;3.20;3.10;;;9.80;99.90;;;;;;5134907;27;20379;-72
2024/02/22 02:56:14;;;;;;;3.30;3.20;;;9.80;99.90;;;;;;5134266;27;20236;-72
2024/02/22 02:58:39;;;;;;;3.30;3.20;;;9.80;99.90;;;;;;5114356;27;20193;-72
2024/02/22 03:01:06;;;;;;;5.03;3.47;;;9.90;99.90;;;;;;5113870;28;20529;-72
2024/02/22 03:03:32;;;;;;;3.50;3.30;;;9.90;99.90;;;;;;5113696;28;20161;-72
2024/02/22 03:05:57;;;;;;;3.20;3.10;;;10.00;99.90;;;;;;5114037;28;20177;-72
2024/02/22 03:08:23;;;;;;;3.87;3.67;;;10.00;99.90;;;;;;5113484;28;20200;-72
2024/02/22 03:10:49;;;;;;;4.17;3.97;;;10.00;99.90;;;;;;5124474;27;20180;-72
2024/02/22 03:13:14;;;;;;;3.77;3.57;;;10.00;99.90;;;;;;5133949;27;20170;-73
2024/02/22 03:15:40;;;;;;;3.53;3.33;;;10.00;99.90;;;;;;5134258;27;20633;-72
2024/02/22 03:18:07;;;;;;;3.80;3.60;;;10.10;99.90;;;;;;5134220;27;20567;-72
2024/02/22 03:20:33;;;;;;;3.83;3.63;;;10.10;99.90;;;;;;5133407;27;20230;-72
2024/02/22 03:23:01;;;;;;;3.73;3.53;;;10.10;99.90;;;;;;5112844;28;20165;-72
2024/02/22 03:25:27;;;;;;;3.30;3.10;;;10.10;99.90;;;;;;5113720;28;20187;-72
2024/02/22 03:27:55;;;;;;;3.70;3.50;;;10.10;99.90;;;;;;5113617;28;20665;-72
2024/02/22 03:30:21;;;;;;;3.63;3.43;;;10.10;99.90;;;;;;5113251;28;20248;-72
2024/02/22 03:32:47;;;;;;;3.60;3.40;;;10.10;99.90;;;;;;5113563;28;20590;-72
2024/02/22 03:35:12;;;;;;;4.00;3.80;;;10.10;99.90;;;;;;5115094;27;20173;-72
2024/02/22 03:37:38;;;;;;;3.77;3.57;;;10.00;99.90;;;;;;5115256;28;20200;-72
2024/02/22 03:40:05;;;;;;;3.70;3.50;;;10.10;99.90;;;;;;5116191;28;20161;-72
2024/02/22 03:42:31;;;;;;;3.70;3.40;;;10.10;99.90;;;;;;5112781;28;20191;-72
2024/02/22 03:44:57;;;;;;;3.80;3.60;;;10.10;99.90;;;;;;5113348;28;20211;-72
2024/02/22 03:47:22;;;;;;;3.50;3.27;;;10.10;99.90;;;;;;5113082;28;20189;-72
2024/02/22 03:49:48;;;;;;;3.67;3.47;;;10.10;99.90;;;;;;5117602;27;20539;-72
2024/02/22 03:52:14;;;;;;;3.93;3.40;;;10.10;99.90;;;;;;5133407;27;20172;-72
2024/02/22 03:54:40;;;;;;;3.50;3.30;;;10.10;99.90;;;;;;5133538;27;20175;-72
2024/02/22 03:57:05;;;;;;;3.37;3.20;;;10.10;99.90;;;;;;5133404;27;20587;-72
2024/02/22 03:59:31;;;;;;;3.40;3.20;;;10.10;99.90;;;;;;5133620;27;20243;-72
2024/02/22 04:01:57;;;;;;;3.50;3.20;;;10.10;99.90;;;;;;5133544;27;20187;-72
2024/02/22 04:04:23;;;;;;;3.30;3.20;;;10.10;99.90;;;;;;5117108;27;20177;-72
2024/02/22 04:06:49;;;;;;;3.23;3.10;;;10.10;99.90;;;;;;5112982;28;20176;-71
2024/02/22 04:09:15;;;;;;;3.40;3.20;;;10.10;99.90;;;;;;5112805;28;20227;-72
2024/02/22 04:11:41;;;;;;;3.27;3.07;;;10.10;99.90;;;;;;5112942;28;20214;-72
2024/02/22 04:14:07;;;;;;;4.77;3.30;;;10.10;99.90;;;;;;5112629;28;20218;-72
2024/02/22 04:16:33;;;;;;;3.40;3.10;;;10.00;99.90;;;;;;5112462;28;20224;-73
2024/02/22 04:19:00;;;;;;;3.73;3.23;;;10.00;99.90;;;;;;5126848;27;20223;-72
2024/02/22 04:21:26;;;;;;;3.47;3.27;;;10.10;99.90;;;;;;5133327;27;20228;-73
2024/02/22 04:23:51;;;;;;;3.50;3.30;;;10.10;99.90;;;;;;5132976;27;20756;-72
2024/02/22 04:26:17;;;;;;;3.80;3.60;;;10.10;99.90;;;;;;5132963;27;20180;-72
2024/02/22 04:28:43;;;;;;;3.30;3.20;;;10.10;99.90;;;;;;5132917;27;20656;-72
2024/02/22 04:31:09;;;;;;;3.40;3.20;;;10.10;99.90;;;;;;5127228;27;20177;-72
2024/02/22 04:33:34;;;;;;;3.83;3.50;;;10.10;99.90;;;;;;5112129;28;20538;-72
2024/02/22 04:36:00;;;;;;;3.50;3.30;;;10.10;99.90;;;;;;5112425;28;20205;-72
2024/02/22 04:38:26;;;;;;;3.30;3.20;;;10.10;99.90;;;;;;5111970;28;20184;-73
2024/02/22 04:40:51;;;;;;;3.33;3.13;;;10.10;99.90;;;;;;5111997;28;20183;-72
2024/02/22 04:43:17;;;;;;;3.73;3.50;;;10.10;99.90;;;;;;5111893;28;20169;-72
2024/02/22 04:45:43;;;;;;;3.30;3.10;;;10.10;99.90;;;;;;5115592;27;20172;-73
2024/02/22 04:48:09;;;;;;;3.27;3.07;;;10.10;99.90;;;;;;5132618;27;20188;-72
2024/02/22 04:50:34;;;;;;;3.47;3.17;;;10.10;99.90;;;;;;5132497;27;20180;-72
2024/02/22 04:53:01;;;;;;;3.30;3.10;;;10.10;99.90;;;;;;5132492;27;20183;-72
2024/02/22 04:55:27;;;;;;;3.60;3.30;;;10.10;99.90;;;;;;5132463;27;20176;-72
2024/02/22 04:57:54;;;;;;;3.63;3.33;;;10.10;99.90;;;;;;5132417;27;20627;-72
2024/02/22 05:00:20;;;;;;;3.67;3.47;;;10.10;99.90;;;;;;5116755;28;20176;-72
2024/02/22 05:02:45;;;;;;;3.70;3.50;;;10.10;99.90;;;;;;5112164;28;20169;-72
2024/02/22 05:05:11;;;;;;;3.80;3.60;;;10.10;99.90;;;;;;5111959;28;20203;-72
2024/02/22 05:07:37;;;;;;;3.80;3.50;;;10.10;99.90;;;;;;5111995;28;20192;-73
2024/02/22 05:10:03;;;;;;;4.37;4.07;;;10.00;99.90;;;;;;5116402;28;20172;-72
2024/02/22 05:12:29;;;;;;;4.07;3.87;;;9.90;99.90;;;;;;5131965;28;20216;-73
2024/02/22 05:14:55;;;;;;;3.63;3.43;;;9.90;99.90;;;;;;5132637;28;20174;-73
2024/02/22 05:17:21;;;;;;;3.60;3.40;;;9.80;99.90;;;;;;5132015;28;20736;-73
2024/02/22 05:19:47;;;;;;;3.70;3.50;;;9.70;99.90;;;;;;5132467;28;20168;-73
2024/02/22 05:22:13;;;;;;;3.83;3.63;;;9.70;99.90;;;;;;5132266;28;20168;-73
2024/02/22 05:24:39;;;;;;;3.60;3.40;;;9.70;99.90;;;;;;5128449;28;20184;-71
2024/02/22 05:27:05;;;;;;;3.30;3.20;;;9.70;99.90;;;;;;5111449;28;20173;-72
2024/02/22 05:29:31;;;;;;;3.60;3.40;;;9.70;99.90;;;;;;5111671;28;20188;-73
2024/02/22 05:31:57;;;;;;;3.40;3.30;;;9.60;99.90;;;;;;5112731;28;20181;-72
2024/02/22 05:34:24;;;;;;;3.60;3.30;;;9.60;99.90;;;;;;5115058;28;20530;-72
2024/02/22 05:36:50;;;;;;;3.60;3.40;;;9.60;99.90;;;;;;5132020;28;20206;-72
2024/02/22 05:39:16;;;;;;;3.63;3.47;;;9.60;99.90;;;;;;5131461;28;20168;-72
2024/02/22 05:41:42;;;;;;;3.43;3.33;;;9.60;99.90;;;;;;5131953;28;20176;-73
2024/02/22 05:44:08;;;;;;;3.87;3.57;;;9.60;99.90;;;;;;5131965;28;20203;-73
2024/02/22 05:46:33;;;;;;;3.80;3.50;;;9.70;99.90;;;;;;5134235;27;20226;-71
2024/02/22 05:49:00;;;;;;;3.30;3.20;;;9.70;99.90;;;;;;5133129;27;20199;-72
2024/02/22 05:51:25;;;;;;;3.90;3.70;;;9.70;99.90;;;;;;5115332;28;20208;-72
2024/02/22 05:53:51;;;;;;;3.50;3.40;;;9.70;99.90;;;;;;5116324;27;20212;-72
2024/02/22 05:56:17;;;;;;;3.67;3.47;;;9.70;99.90;;;;;;5115164;28;20204;-73
2024/02/22 05:58:43;;;;;;;4.13;3.50;;;9.70;99.90;;;;;;5114974;28;20279;-73
2024/02/22 06:01:09;;;;;;;3.77;3.43;;;9.70;99.90;;;;;;5115628;28;20176;-72
2024/02/22 06:03:34;;;;;;;3.60;3.40;;;9.70;99.90;;;;;;5114861;28;20252;-72
2024/02/22 06:06:00;;;;;;;3.60;3.40;;;9.60;99.90;;;;;;5115247;28;20205;-72
2024/02/22 06:08:26;;;;;;;3.90;3.50;;;9.60;99.90;;;;;;5126414;27;20204;-73
2024/02/22 06:10:54;;;;;;;3.73;3.53;;;9.60;99.90;;;;;;5135475;27;20668;-72
2024/02/22 06:13:19;;;;;;;3.57;3.37;;;9.60;99.90;;;;;;5134988;27;20179;-72
2024/02/22 06:15:45;;;;;;;3.50;3.30;;;9.60;99.90;;;;;;5135462;27;20508;-72
2024/02/22 06:18:12;;;;;;;3.70;3.50;;;9.70;99.90;;;;;;5241926;22;20243;-89
2024/02/22 06:20:43;;;;;;;3.67;3.47;;;9.70;99.90;;;;;;5107504;28;20261;-92
2024/02/22 06:23:09;;;;;;;3.73;3.53;;;9.70;99.90;;;;;;5118314;28;20230;-89
2024/02/22 06:25:36;;;;;;;3.87;3.67;;;9.70;99.90;;;;;;5105140;28;20177;-90
2024/02/22 06:28:02;;;;;;;3.80;3.60;;;9.70;99.90;;;;;;5104336;28;20196;-88
2024/02/22 06:30:29;;;;;;;3.70;3.50;;;9.70;99.90;;;;;;5122805;28;20169;-90
2024/02/22 06:32:57;;;;;;;4.37;4.07;;;9.70;99.90;;;;;;5109225;28;20256;-91
2024/02/22 06:35:25;;;;;;;4.30;3.90;;;9.70;99.90;;;;;;5107729;28;20207;-92
2024/02/22 06:37:51;;;;;;;4.10;3.80;;;9.70;99.90;;;;;;5110869;28;20305;-89
2024/02/22 06:40:18;;;;;;;4.10;3.90;;;9.70;99.90;;;;;;5105241;28;20180;-90
2024/02/22 06:42:43;;;;;;;4.40;4.13;;;9.70;99.90;;;;;;5105328;28;20173;-89
2024/02/22 06:45:09;;;;;;;5.23;3.90;;;9.70;99.90;;;;;;5104773;28;20625;-88
2024/02/22 06:47:36;;;;;;;4.03;3.73;;;9.70;99.90;;;;;;5111263;28;20192;-88
2024/02/22 06:50:05;;;;;;;3.87;3.67;;;9.70;99.90;;;;;;5108740;28;20233;-88
2024/02/22 06:52:31;;;;;;;4.00;3.80;;;9.70;99.90;;;;;;5109631;28;20176;-88
2024/02/22 06:54:57;;;;;;;3.73;3.43;;;9.70;99.90;;;;;;5106173;28;20180;-88
2024/02/22 06:57:23;;;;;;;3.90;3.70;;;9.70;99.90;;;;;;5107549;28;20208;-88
2024/02/22 06:59:48;;;;;;;4.00;3.80;;;9.70;99.90;;;;;;5107362;28;20249;-89
2024/02/22 07:02:15;;;;;;;4.27;4.07;;;9.70;99.90;;;;;;5101837;28;20169;-89
2024/02/22 07:04:42;;;;;;;4.30;4.10;;;9.70;99.90;;;;;;5104588;28;20633;-89
2024/02/22 07:07:08;;;;;;;4.27;4.07;;;9.70;99.90;;;;;;5102563;28;20264;-89
2024/02/22 07:09:34;;;;;;;4.07;3.77;;;9.80;99.90;;;;;;5102880;28;20212;-89
2024/02/22 07:12:01;;;;;;;4.27;3.97;;;9.80;99.90;;;;;;5110992;28;20184;-89
2024/02/22 07:14:26;;;;;;;4.43;4.13;;;9.70;99.90;;;;;;5103570;28;20176;-89
2024/02/22 07:16:52;;;;;;;4.37;4.07;;;9.70;99.90;;;;;;5101470;28;20713;-89
2024/02/22 07:19:18;;;;;;;4.70;4.30;;;9.90;99.90;;;;;;5103984;28;20225;-89
2024/02/22 07:21:44;;;;;;;4.50;4.20;;;9.80;99.90;;;;;;5105381;28;20196;-89
2024/02/22 07:24:11;;;;;;;4.17;3.97;;;9.90;99.90;;;;;;5103624;28;20169;-89
2024/02/22 07:26:38;;;;;;;3.90;3.70;;;10.00;99.90;;;;;;5107910;28;20192;-89
2024/02/22 07:29:04;;;;;;;4.30;4.00;;;9.90;99.90;;;;;;5104034;28;20177;-88
2024/02/22 07:31:30;;;;;;;3.90;3.70;;;10.00;99.90;;;;;;5101372;28;20663;-89
2024/02/22 07:33:56;;;;;;;3.57;3.30;;;9.90;99.90;;;;;;5101335;28;20256;-87
2024/02/22 07:36:27;;;;;;;3.70;3.50;;;10.00;99.90;;;;;;5119026;28;20196;-88
2024/02/22 07:38:53;;;;;;;3.97;3.70;;;10.00;99.90;;;;;;5104180;28;20685;-88
2024/02/22 07:41:19;;;;;;;4.17;3.87;;;9.90;99.90;;;;;;5087196;28;20180;-88
2024/02/22 07:43:49;;;;;;;3.90;3.70;;;9.90;99.90;;;;;;5102842;28;20177;-88
2024/02/22 07:46:16;;;;;;;3.40;3.20;;;9.90;99.90;;;;;;5105419;28;20168;-88
2024/02/22 07:48:42;;;;;;;3.77;3.57;;;9.90;99.90;;;;;;5103424;28;20201;-88
2024/02/22 07:51:09;;;;;;;3.50;3.40;;;9.90;99.90;;;;;;5105498;28;20248;-87
2024/02/22 07:53:37;;;;;;;3.63;3.50;;;9.90;99.90;;;;;;5104168;28;20180;-88
2024/02/22 07:56:07;;;;;;;3.60;3.30;;;9.90;99.90;;;;;;5098864;28;20204;-88
2024/02/22 07:58:58;;;;;;;3.50;3.30;;;9.90;99.90;;;;;;5112463;28;20256;-88
2024/02/22 08:01:23;;;;;;;3.87;3.67;;;10.00;99.90;;;;;;5109823;28;20553;-89
2024/02/22 08:03:49;;;;;;;3.63;3.50;;;10.00;99.90;;;;;;5109792;28;20198;-89
2024/02/22 08:06:16;;;;;;;4.67;3.50;;;10.00;99.90;;;;;;5109902;28;20177;-88
2024/02/22 08:08:42;;;;;;;3.50;3.23;;;10.00;99.90;;;;;;5103863;28;20196;-87
2024/02/22 08:11:09;;;;;;;3.30;3.20;;;10.00;99.90;;;;;;5105831;28;20272;-88
2024/02/22 08:13:34;;;;;;;3.73;3.53;;;10.10;99.90;;;;;;5102602;28;20180;-87
2024/02/22 08:16:08;;;;;;;3.77;3.57;;;10.20;99.90;;;;;;5103789;28;20268;-88
2024/02/22 08:18:35;;;;;;;3.60;3.40;;;10.20;99.90;;;;;;5102440;28;20219;-88
2024/02/22 08:21:01;;;;;;;3.83;3.53;;;10.30;99.90;;;;;;5102710;28;20168;-88
2024/02/22 08:23:27;;;;;;;3.70;3.50;;;10.40;99.90;;;;;;5101092;28;20176;-88
2024/02/22 08:25:54;;;;;;;3.80;3.60;;;10.40;99.90;;;;;;5101170;28;20172;-88
2024/02/22 08:28:20;;;;;;;3.97;3.77;;;10.50;99.90;;;;;;5099784;28;20200;-88
2024/02/22 08:30:47;;;;;;;4.40;4.10;;;10.60;99.90;;;;;;5102637;28;20165;-88
2024/02/22 08:33:13;;;;;;;3.70;3.50;;;10.60;99.90;;;;;;5102280;28;20165;-87
2024/02/22 08:35:39;;;;;;;3.70;3.40;;;10.70;99.90;;;;;;5103834;28;20165;-88
2024/02/22 08:38:05;;;;;;;3.30;3.20;;;10.80;99.90;;;;;;5094059;28;20192;-88
2024/02/22 08:40:31;;;;;;;3.70;3.50;;;10.90;99.90;;;;;;5101883;28;20177;-88
2024/02/22 08:43:00;;;;;;;3.63;3.43;;;10.90;99.90;;;;;;5100867;28;20177;-89
2024/02/22 08:45:26;;;;;;;4.67;3.40;;;11.00;99.90;;;;;;5100091;28;20169;-89
2024/02/22 08:47:52;;;;;;;4.00;3.70;;;11.10;99.90;;;;;;5099716;28;20196;-89
2024/02/22 08:50:18;;;;;;;4.50;4.20;;;11.20;99.90;;;;;;5083057;28;20188;-89
2024/02/22 08:53:09;;;;;;;5.87;5.40;;;11.30;99.90;;;;;;5119433;28;20173;-89
2024/02/22 08:55:36;;;;;;;11.03;7.60;;;11.40;99.90;;;;;;5103205;28;20193;-89
2024/02/22 08:58:02;;;;;;;6.43;5.77;;;11.50;99.90;;;;;;5099990;28;20216;-89
2024/02/22 09:00:29;;;;;;;11.97;6.00;;;11.50;99.90;;;;;;5099800;28;20260;-88
2024/02/22 09:02:56;;;;;;;4.60;4.30;;;11.60;99.90;;;;;;5102655;28;20177;-88
2024/02/22 09:05:22;;;;;;;4.83;4.43;;;11.70;99.90;;;;;;5101883;28;20184;-88
2024/02/22 09:07:49;;;;;;;4.17;3.87;;;11.70;99.90;;;;;;5118900;28;20702;-88
2024/02/22 09:10:15;;;;;;;3.43;3.23;;;11.80;99.90;;;;;;5099593;28;20685;-89
2024/02/22 09:12:43;;;;;;;11.40;7.07;;;11.90;99.90;;;;;;5098919;28;20186;-89
2024/02/22 09:15:12;;;;;;;6.93;5.17;;;12.00;99.90;;;;;;5098834;28;20672;-88
2024/02/22 09:17:38;;;;;;;5.50;4.77;;;12.10;99.90;;;;;;5099609;28;20259;-89
2024/02/22 09:20:04;;;;;;;5.37;4.77;;;12.20;99.90;;;;;;5099690;28;20338;-88
2024/02/22 09:22:30;;;;;;;4.13;3.80;;;12.20;99.90;;;;;;5106381;28;20169;-88
2024/02/22 09:24:56;;;;;;;4.17;3.80;;;12.20;99.90;;;;;;5105961;28;20183;-88
2024/02/22 09:27:21;;;;;;;4.60;4.20;;;12.20;99.90;;;;;;5118001;28;20206;-88
2024/02/22 09:29:47;;;;;;;4.27;3.90;;;12.20;99.90;;;;;;5101399;28;20261;-88
2024/02/22 09:32:14;;;;;;;6.87;5.00;;;12.20;99.90;;;;;;5104891;28;20187;-88
2024/02/22 09:34:40;;;;;;;4.43;4.03;;;12.30;99.90;;;;;;5104280;28;20172;-88
2024/02/22 09:37:07;;;;;;;4.00;3.70;;;12.40;99.90;;;;;;5105129;28;20295;-88
2024/02/22 09:39:33;;;;;;;3.47;3.27;;;12.50;99.90;;;;;;5090142;28;20181;-87
2024/02/22 09:42:00;;;;;;;3.50;3.20;;;12.70;99.90;;;;;;5110487;28;20256;-88
2024/02/22 09:44:30;;;;;;;3.77;3.40;;;12.90;99.90;;;;;;5104374;28;20180;-88
2024/02/22 09:46:55;;;;;;;3.40;3.20;;;13.00;99.90;;;;;;5103608;28;20204;-88
2024/02/22 09:49:22;;;;;;;3.97;3.67;;;13.00;99.90;;;;;;5104253;28;20368;-90
2024/02/22 09:51:51;;;;;;;3.53;3.27;;;12.90;99.90;;;;;;5103293;28;20210;-89
2024/02/22 09:54:21;;;;;;;3.10;2.90;;;12.80;99.90;;;;;;5103765;28;20177;-89
2024/02/22 09:56:48;;;;;;;3.70;3.40;;;12.70;99.90;;;;;;5103383;28;20223;-88
2024/02/22 09:59:16;;;;;;;3.70;3.40;;;12.70;99.90;;;;;;5088997;28;20188;-89
2024/02/22 10:01:42;;;;;;;3.80;3.47;;;12.60;99.90;;;;;;5105630;28;20177;-89
2024/02/22 10:04:16;;;;;;;3.67;3.27;;;12.70;99.90;;;;;;5123025;28;20173;-89
2024/02/22 10:06:42;;;;;;;3.73;3.30;;;12.80;99.90;;;;;;5101291;28;20203;-88
2024/02/22 10:09:08;;;;;;;2.83;2.63;;;13.10;99.90;;;;;;5104964;28;20172;-89
2024/02/22 10:11:36;;;;;;;3.60;2.90;;;13.50;99.90;;;;;;5103043;28;20236;-89
2024/02/22 10:14:02;;;;;;;7.33;5.40;;;13.80;99.90;;;;;;5100044;28;20176;-89
2024/02/22 10:16:28;;;;;;;10.90;7.57;;;13.90;99.90;;;;;;5118892;28;20234;-92
2024/02/22 10:19:01;;;;;;;4.80;4.40;;;14.00;99.90;;;;;;5098926;28;20208;-88
2024/02/22 10:21:28;;;;;;;4.63;4.23;;;13.90;99.90;;;;;;5122137;28;20168;-88
2024/02/22 10:23:55;;;;;;;3.63;3.43;;;13.90;99.90;;;;;;5103339;28;20181;-89
2024/02/22 10:26:21;;;;;;;3.57;3.27;;;13.80;99.90;;;;;;5103438;28;20217;-88
2024/02/22 10:29:06;;;;;;;3.50;3.30;;;13.80;99.90;;;;;;5102184;28;20288;-89
2024/02/22 10:31:41;;;;;;;4.40;3.80;;;13.80;99.90;;;;;;5100034;28;20180;-88
2024/02/22 10:34:08;;;;;;;4.27;3.97;;;13.80;99.90;;;;;;5101959;28;20177;-87
2024/02/22 10:36:36;;;;;;;5.73;3.33;;;13.70;99.90;;;;;;5102375;28;20270;-89
2024/02/22 10:39:03;;;;;;;4.00;3.70;;;13.60;99.90;;;;;;5080501;28;20243;-89
2024/02/22 10:41:29;;;;;;;3.13;2.93;;;13.60;99.90;;;;;;5063358;28;20284;-89
2024/02/22 10:43:57;;;;;;;2.93;2.73;;;13.70;99.90;;;;;;5080310;28;20177;-89
2024/02/22 10:46:27;;;;;;;2.23;2.13;;;13.80;99.90;;;;;;5099767;28;20205;-89
2024/02/22 10:48:53;;;;;;;2.30;2.20;;;14.00;99.90;;;;;;5083710;28;20177;-88
2024/02/22 10:51:20;;;;;;;2.90;2.70;;;14.20;99.90;;;;;;5090830;28;20188;-89
2024/02/22 10:53:52;;;;;;;2.50;2.40;;;14.40;99.90;;;;;;5099536;28;20177;-89
2024/02/22 10:56:24;;;;;;;2.60;2.50;;;14.50;99.90;;;;;;5099570;28;20201;-89
2024/02/22 10:58:56;;;;;;;2.70;2.60;;;14.60;99.90;;;;;;5100020;28;20169;-89
2024/02/22 11:01:23;;;;;;;2.50;2.40;;;14.70;99.90;;;;;;5100440;28;20558;-88
2024/02/22 11:03:50;;;;;;;2.60;2.50;;;14.60;99.90;;;;;;5099942;28;20651;-90
2024/02/22 11:06:20;;;;;;;2.50;2.40;;;14.60;99.90;;;;;;5118766;28;20183;-89
2024/02/22 11:08:59;;;;;;;2.53;2.43;;;14.60;99.90;;;;;;5100680;28;20181;-89
2024/02/22 11:11:30;;;;;;;2.33;2.23;;;14.70;99.90;;;;;;5105221;28;20647;-89
2024/02/22 11:14:01;;;;;;;2.60;2.40;;;14.70;99.90;;;;;;5105320;28;20177;-89
2024/02/22 11:16:35;;;;;;;2.70;2.60;;;14.70;99.90;;;;;;5101938;28;20287;-89
2024/02/22 11:19:16;;;;;;;2.50;2.30;;;14.70;99.90;;;;;;5103092;28;20215;-89
2024/02/22 11:21:42;;;;;;;2.40;2.30;;;14.70;99.90;;;;;;5116194;28;20172;-89
2024/02/22 11:24:22;;;;;;;3.17;2.97;;;14.60;99.90;;;;;;5113064;28;20393;-89
2024/02/22 11:26:50;;;;;;;3.23;3.03;;;14.50;99.90;;;;;;5113174;28;20770;-88
2024/02/22 11:29:30;;;;;;;3.63;3.43;;;14.40;99.90;;;;;;5112325;28;20272;-89
2024/02/22 11:32:05;;;;;;;3.43;3.20;;;14.30;99.90;;;;;;5109226;28;20176;-91
2024/02/22 11:34:32;;;;;;;3.97;3.67;;;14.10;99.90;;;;;;5088677;28;20183;-89
2024/02/22 11:37:10;;;;;;;2.90;2.80;;;14.00;99.90;;;;;;5103389;28;20625;-89
2024/02/22 11:39:35;;;;;;;3.20;3.00;;;13.90;99.90;;;;;;5103189;28;20168;-90
2024/02/22 11:42:01;;;;;;;2.83;2.73;;;13.80;99.90;;;;;;5104653;28;20180;-89
2024/02/22 11:44:27;;;;;;;3.63;3.43;;;13.70;99.90;;;;;;5070854;28;20624;-90
2024/02/22 11:46:53;;;;;;;2.70;2.60;;;13.70;99.90;;;;;;5103481;28;20894;-90
2024/02/22 11:49:20;;;;;;;3.00;2.80;;;13.70;99.90;;;;;;5101926;28;20177;-89
2024/02/22 11:51:46;;;;;;;2.67;2.57;;;13.80;99.90;;;;;;5109374;28;20224;-89
2024/02/22 11:54:16;;;;;;;3.27;2.60;;;13.90;99.90;;;;;;5111769;28;20242;-89
2024/02/22 11:56:42;;;;;;;2.77;2.50;;;14.00;99.90;;;;;;5102752;28;20208;-90
2024/02/22 11:59:08;;;;;;;2.67;2.50;;;14.10;99.90;;;;;;5103888;28;20182;-90
2024/02/22 12:01:36;;;;;;;2.80;2.60;;;14.10;99.90;;;;;;5125040;28;20171;-90
2024/02/22 12:04:02;;;;;;;2.93;2.77;;;14.20;99.90;;;;;;5105761;28;20173;-88
2024/02/22 12:06:31;;;;;;;3.27;2.57;;;14.20;99.90;;;;;;5110767;28;20177;-89
2024/02/22 12:08:56;;;;;;;2.87;2.70;;;14.20;99.90;;;;;;5102114;28;20160;-88
2024/02/22 12:11:24;;;;;;;2.57;2.47;;;14.20;99.90;;;;;;5121592;28;20192;-89
2024/02/22 12:14:03;;;;;;;2.30;2.20;;;14.20;99.90;;;;;;5117983;28;20180;-90
2024/02/22 12:16:29;;;;;;;2.40;2.30;;;14.20;99.90;;;;;;5114427;28;20283;-89
2024/02/22 12:18:56;;;;;;;2.77;2.57;;;14.20;99.90;;;;;;5115787;28;20616;-88
2024/02/22 12:21:26;;;;;;;2.30;2.20;;;14.30;99.90;;;;;;5102727;28;20172;-89
2024/02/22 12:23:59;;;;;;;2.40;2.30;;;14.20;99.90;;;;;;5101837;28;20161;-89
2024/02/22 12:26:25;;;;;;;2.33;2.23;;;14.20;99.90;;;;;;5102013;28;20176;-89
2024/02/22 12:28:54;;;;;;;2.50;2.40;;;14.20;99.90;;;;;;5100577;28;20202;-87
2024/02/22 12:31:21;;;;;;;2.60;2.40;;;14.20;99.90;;;;;;5085879;28;20173;-88
2024/02/22 12:33:51;;;;;;;2.97;2.73;;;14.20;99.90;;;;;;5101879;28;20176;-89
2024/02/22 12:36:20;;;;;;;2.80;2.70;;;14.20;99.90;;;;;;5125282;28;20276;-89
2024/02/22 12:38:46;;;;;;;2.47;2.37;;;14.30;99.90;;;;;;5101273;28;20183;-89
2024/02/22 12:41:15;;;;;;;2.53;2.43;;;14.40;99.90;;;;;;5101181;28;20252;-88
2024/02/22 12:43:47;;;;;;;2.40;2.30;;;14.50;99.90;;;;;;5101617;28;20191;-88
2024/02/22 12:46:13;;;;;;;2.43;2.33;;;14.60;99.90;;;;;;5103218;28;20183;-88
2024/02/22 12:48:39;;;;;;;2.70;2.60;;;14.60;99.90;;;;;;5101437;28;20228;-88
2024/02/22 12:51:06;;;;;;;2.70;2.50;;;14.60;99.90;;;;;;5100995;28;20663;-91